Site contains unofficial IBTrACS data. Visit the IBTrACS Website to access archived data.

1886 Hurricane NOT_NAMED (1886263N18298)


IBTrACS version v04r00. Visit IBTrACS website for data access.
Please direct all questions to the IBTrACS Q and A forum

Storm track - Intensity - Wind Radii - Intensity Data - Source Data - All data

Summary Information

Storm ID 1886263N18298
Start Sep 20 00Z
Max Intensity 95 kt (Sep 25 00Z), 966 mb (Sep 25 00Z)
End Oct 2 00Z
ATCF IDs ,AL091886
Track status Best track data.

Storm track plot

Map of storm track

Intensity plots

Map of storm track

Radial wind information

No radial wind information for this storm


Position and Intensity Table

BASIN ISO_TIME_________ NATURE LAT LON WMO WIND USA WIND MLC WIND MLC PRES
degrees north degrees east kts kts kts mb
NA 1886-09-20 00:00:00 TS 18.20 -62.50 25
NA 03:00:00 TS 18.50 -62.66 25
NA 06:00:00 TS 18.80 -62.80 25
NA 09:00:00 TS 19.10 -62.90 27
NA 12:00:00 TS 19.40 -63.00 30
NA 15:00:00 TS 19.71 -63.15 30
NA 18:00:00 TS 20.00 -63.30 30
NA 21:00:00 TS 20.25 -63.39 30
NA 1886-09-21 00:00:00 TS 20.50 -63.50 30
NA 03:00:00 TS 20.80 -63.73 32
NA 06:00:00 TS 21.10 -64.00 35
NA 09:00:00 TS 21.36 -64.21 37
NA 12:00:00 TS 21.60 -64.40 40
NA 15:00:00 TS 21.85 -64.60 42
NA 18:00:00 TS 22.10 -64.80 45
NA 21:00:00 TS 22.34 -65.01 47
NA 1886-09-22 00:00:00 TS 22.70 -65.70 50 50 50
NA 03:00:00 TS 22.97 -66.00 50 50
NA 06:00:00 TS 23.20 -66.16 50 50 50
NA 09:00:00 TS 23.39 -66.25 52 52
NA 12:00:00 TS 23.57 -66.27 55 55 55
NA 15:00:00 TS 23.70 -66.26 55 57
NA 18:00:00 TS 23.83 -66.23 55 55 60
NA 21:00:00 TS 23.99 -66.22 57 60
NA 1886-09-23 00:00:00 TS 24.17 -66.20 60 60 60
NA 03:00:00 TS 24.37 -66.15 62 62
NA 06:00:00 TS 24.57 -66.10 65 65 65
NA 09:00:00 TS 24.73 -66.07 67 67
NA 12:00:00 TS 24.87 -66.03 70 70 70 991
NA 15:00:00 TS 24.96 -65.99 72 72
NA 18:00:00 TS 25.03 -65.93 75 75 75
NA 21:00:00 TS 25.14 -65.86 77 77
NA 1886-09-24 00:00:00 TS 25.23 -65.77 80 80 80
NA 03:00:00 TS 25.31 -65.64 82 82
NA 06:00:00 TS 25.37 -65.50 85 85 85
NA 09:00:00 TS 25.40 -65.37 85 85
NA 12:00:00 TS 25.43 -65.27 85 85 85
NA 15:00:00 TS 25.49 -65.20 85 87
NA 18:00:00 TS 25.57 -65.13 85 85 90
NA 21:00:00 TS 25.63 -65.01 85 92
NA 1886-09-25 00:00:00 TS 25.70 -64.90 85 85 95 966
NA 03:00:00 TS 25.77 -64.86 85 92
NA 06:00:00 TS 25.83 -64.87 85 85 90
NA 09:00:00 TS 25.87 -64.89 85 90
NA 12:00:00 TS 25.90 -64.93 85 85 90
NA 15:00:00 TS 25.95 -64.99 85 90
NA 18:00:00 TS 26.00 -65.07 85 85 90
NA 21:00:00 TS 26.04 -65.14 85 90
NA 1886-09-26 00:00:00 TS 26.07 -65.23 85 85 90
NA 03:00:00 TS 26.09 -65.33 85 90
NA 06:00:00 TS 26.10 -65.43 85 85 90
NA 09:00:00 TS 26.10 -65.51 85 90
NA 12:00:00 TS 26.13 -65.60 85 85 90
NA 15:00:00 TS 26.23 -65.76 85 90
NA 18:00:00 TS 26.33 -65.93 85 85 90
NA 21:00:00 TS 26.39 -66.07 85 90
NA 1886-09-27 00:00:00 TS 26.43 -66.20 85 85 90
NA 03:00:00 TS 26.48 -66.31 85 90
NA 06:00:00 TS 26.53 -66.47 85 85 90
NA 09:00:00 TS 26.60 -66.72 85 90
NA 12:00:00 TS 26.70 -67.00 85 85 90
NA 15:00:00 TS 26.84 -67.25 85 90
NA 18:00:00 TS 27.00 -67.50 85 85 90
NA 21:00:00 TS 27.16 -67.79 85 90
NA 1886-09-28 00:00:00 TS 27.33 -68.07 85 85 90
NA 03:00:00 TS 27.54 -68.27 85 90
NA 06:00:00 TS 27.77 -68.43 85 85 90
NA 09:00:00 TS 27.96 -68.61 85 90
NA 12:00:00 TS 28.17 -68.77 85 85 90
NA 15:00:00 TS 28.43 -68.89 85 90
NA 18:00:00 TS 28.70 -69.00 85 85 90
NA 21:00:00 TS 28.94 -69.11 85 87
NA 1886-09-29 00:00:00 TS 29.17 -69.20 85 85 85
NA 03:00:00 TS 29.42 -69.26 85 85
NA 06:00:00 TS 29.67 -69.30 85 85 85
NA 09:00:00 TS 29.87 -69.33 85 85
NA 12:00:00 TS 30.07 -69.37 85 85 85
NA 15:00:00 TS 30.31 -69.41 85 85
NA 18:00:00 TS 30.57 -69.47 85 85 85 982
NA 21:00:00 TS 30.80 -69.52 82 82
NA 1886-09-30 00:00:00 TS 31.03 -69.57 80 80 80
NA 03:00:00 TS 31.26 -69.61 77 77
NA 06:00:00 TS 31.47 -69.63 75 75 75
NA 09:00:00 TS 31.62 -69.62 62 62
NA 12:00:00 TS 31.82 -69.52 50 50 50
NA 15:00:00 TS 32.17 -69.41 42 42
NA 18:00:00 TS 32.73 -69.17 35 35 35
NA 21:00:00 TS 33.67 -68.54 32
NA 1886-10-01 00:00:00 TS 34.50 -68.00 30
NA 03:00:00 TS 35.47 -66.74 30
NA 06:00:00 TS 36.50 -65.30 30
NA 09:00:00 TS 37.40 -64.27 30
NA 12:00:00 TS 38.50 -63.50 30
NA 15:00:00 TS 40.05 -63.18 30
NA 18:00:00 ET 41.80 -62.50 30
NA 21:00:00 ET 43.46 -60.66 30
NA 1886-10-02 00:00:00 ET 45.00 -58.00 30

Source Information

Agency Information
USA hurdat2-1851-2019-042820.txt:Line=5420:UNNAMED
TOKYO
CMA
HKO
NEWDELHI
REUNION
BOM
NADI
WELLINGTON
DS824
TD9636
TD9635
NEUMANN
MLC

All available IBTrACS Data

SEASON BASIN SUBBASIN ISO_TIME_________ NATURE LAT LON WMO WIND WMO AGENCY DIST2LAND LANDFALL IFLAG USA AGENCY USA ATCF_ID USA LAT USA LON USA STATUS USA WIND USA SSHS MLC LAT MLC LON MLC CLASS MLC WIND MLC PRES STORM SPEED STORM DIR
Year degrees north degrees east kts km km degrees north degrees east kts 1 degrees north degrees east kts mb kts degrees
1886 NA CS 1886-09-20 00:00:00 TS 18.20 -62.50 327 306 _____________O -1 18.20 -62.50 TD 25 7 333
1886 NA CS 03:00:00 TS 18.50 -62.66 306 297 _____________P -1 18.50 -62.66 TD 25 7 335
1886 NA NA 06:00:00 TS 18.80 -62.80 298 289 _____________O -1 18.80 -62.80 TD 25 6 340
1886 NA NA 09:00:00 TS 19.10 -62.90 294 291 _____________P -1 19.10 -62.90 TD 27 6 342
1886 NA NA 12:00:00 TS 19.40 -63.00 295 290 _____________O -1 19.40 -63.00 TD 30 7 339
1886 NA NA 15:00:00 TS 19.71 -63.15 300 291 _____________P -1 19.71 -63.15 TD 30 7 335
1886 NA NA 18:00:00 TS 20.00 -63.30 300 300 _____________O -1 20.00 -63.30 TD 30 6 338
1886 NA NA 21:00:00 TS 20.25 -63.39 306 306 _____________P -1 20.25 -63.39 TD 30 5 340
1886 NA NA 1886-09-21 00:00:00 TS 20.50 -63.50 321 321 _____________O -1 20.50 -63.50 TD 30 6 329
1886 NA NA 03:00:00 TS 20.80 -63.73 334 328 _____________P -1 20.80 -63.73 TD 32 8 322
1886 NA NA 06:00:00 TS 21.10 -64.00 345 345 _____________O -1 21.10 -64.00 TS 35 7 322
1886 NA NA 09:00:00 TS 21.36 -64.21 366 362 _____________P -1 21.36 -64.21 TS 37 6 323
1886 NA NA 12:00:00 TS 21.60 -64.40 379 379 _____________O -1 21.60 -64.40 TS 40 6 323
1886 NA NA 15:00:00 TS 21.85 -64.60 394 394 _____________P -1 21.85 -64.60 TS 42 6 323
1886 NA NA 18:00:00 TS 22.10 -64.80 422 422 _____________O -1 22.10 -64.80 TS 45 6 323
1886 NA NA 21:00:00 TS 22.34 -65.01 440 440 _____________P -1 22.34 -65.01 TS 47 10 306
1886 NA NA 1886-09-22 00:00:00 TS 22.70 -65.70 50 hurdat_atl 480 480 O____________O hurdat_atl AL091886 22.90 -66.70 TS 50 0 22.60 -65.20 TS 50 11 304
1886 NA NA 03:00:00 TS 22.97 -66.00 514 514 P____________P AL091886 23.05 -66.65 TS 50 0 22.90 -65.36 TS 50 7 320
1886 NA NA 06:00:00 TS 23.20 -66.16 50 hurdat_atl 536 536 O____________O hurdat_atl AL091886 23.20 -66.60 TS 50 0 23.20 -65.50 TS 50 5 331
1886 NA NA 09:00:00 TS 23.39 -66.25 553 553 P____________P AL091886 23.36 -66.55 TS 52 0 23.47 -65.66 TS 52 4 345
1886 NA NA 12:00:00 TS 23.57 -66.27 55 hurdat_atl 572 572 O____________O hurdat_atl AL091886 23.50 -66.50 TS 55 0 23.70 -65.80 TS 55 3 0
1886 NA NA 15:00:00 TS 23.70 -66.26 581 581 P____________P AL091886 23.60 -66.45 TS 55 0 23.91 -65.87 TS 57 3 6
1886 NA NA 18:00:00 TS 23.83 -66.23 55 hurdat_atl 596 596 O____________O hurdat_atl AL091886 23.70 -66.40 TS 55 0 24.10 -65.90 TS 60 3 9
1886 NA NA 21:00:00 TS 23.99 -66.22 615 615 P____________P AL091886 23.83 -66.36 TS 57 0 24.30 -65.95 TS 60 3 7
1886 NA NA 1886-09-23 00:00:00 TS 24.17 -66.20 60 hurdat_atl 634 634 O____________O hurdat_atl AL091886 24.00 -66.30 TS 60 0 24.50 -66.00 TS 60 4 10
1886 NA NA 03:00:00 TS 24.37 -66.15 653 653 P____________P AL091886 24.20 -66.20 TS 62 0 24.71 -66.06 TS 62 4 12
1886 NA NA 06:00:00 TS 24.57 -66.10 65 hurdat_atl 678 678 O____________O hurdat_atl AL091886 24.40 -66.10 HU 65 1 24.90 -66.10 HU 65 4 12
1886 NA NA 09:00:00 TS 24.73 -66.07 687 687 P____________P AL091886 24.57 -66.03 HU 67 1 25.06 -66.13 HU 67 3 9
1886 NA NA 12:00:00 TS 24.87 -66.03 70 hurdat_atl 712 712 O____________O hurdat_atl AL091886 24.70 -66.00 HU 70 1 25.20 -66.10 HU 70 991 2 17
1886 NA NA 15:00:00 TS 24.96 -65.99 722 722 P____________P AL091886 24.76 -66.00 HU 72 1 25.36 -65.97 HU 72 2 29
1886 NA NA 18:00:00 TS 25.03 -65.93 75 hurdat_atl 726 726 O____________O hurdat_atl AL091886 24.80 -66.00 HU 75 1 25.50 -65.80 HU 75 2 33
1886 NA NA 21:00:00 TS 25.14 -65.86 736 736 P____________P AL091886 24.89 -65.96 HU 77 1 25.62 -65.66 HU 77 3 38
1886 NA NA 1886-09-24 00:00:00 TS 25.23 -65.77 80 hurdat_atl 751 751 O____________O hurdat_atl AL091886 25.00 -65.90 HU 80 1 25.70 -65.50 HU 80 3 49
1886 NA NA 03:00:00 TS 25.31 -65.64 771 771 P____________P AL091886 25.11 -65.81 HU 82 1 25.72 -65.30 HU 82 3 61
1886 NA NA 06:00:00 TS 25.37 -65.50 85 hurdat_atl 782 782 O____________O hurdat_atl AL091886 25.20 -65.70 HU 85 2 25.70 -65.10 HU 85 3 69
1886 NA NA 09:00:00 TS 25.40 -65.37 782 782 P____________P AL091886 25.26 -65.59 HU 85 2 25.68 -64.93 HU 85 2 72
1886 NA NA 12:00:00 TS 25.43 -65.27 85 hurdat_atl 783 783 O____________O hurdat_atl AL091886 25.30 -65.50 HU 85 2 25.70 -64.80 HU 85 2 59
1886 NA NA 15:00:00 TS 25.49 -65.20 794 794 P____________P AL091886 25.35 -65.45 HU 85 2 25.78 -64.70 HU 87 2 41
1886 NA NA 18:00:00 TS 25.57 -65.13 85 hurdat_atl 806 806 O____________O hurdat_atl AL091886 25.40 -65.40 HU 85 2 25.90 -64.60 HU 90 2 51
1886 NA NA 21:00:00 TS 25.63 -65.01 807 807 P____________P AL091886 25.44 -65.31 HU 85 2 26.02 -64.41 HU 92 2 57
1886 NA NA 1886-09-25 00:00:00 TS 25.70 -64.90 85 hurdat_atl 819 819 O____________O hurdat_atl AL091886 25.50 -65.20 HU 85 2 26.10 -64.30 HU 95 966 2 43
1886 NA NA 03:00:00 TS 25.77 -64.86 830 830 P____________P AL091886 25.60 -65.09 HU 85 2 26.12 -64.41 HU 92 1 13
1886 NA NA 06:00:00 TS 25.83 -64.87 85 hurdat_atl 830 830 O____________O hurdat_atl AL091886 25.70 -65.00 HU 85 2 26.10 -64.60 HU 90 1 0
1886 NA NA 09:00:00 TS 25.87 -64.89 841 841 P____________P AL091886 25.75 -64.98 HU 85 2 26.11 -64.69 HU 90 1 319
1886 NA NA 12:00:00 TS 25.90 -64.93 85 hurdat_atl 841 840 O____________O hurdat_atl AL091886 25.80 -65.00 HU 85 2 26.10 -64.80 HU 90 1 310
1886 NA NA 15:00:00 TS 25.95 -64.99 851 851 P____________P AL091886 25.90 -64.99 HU 85 2 26.05 -64.99 HU 90 2 311
1886 NA NA 18:00:00 TS 26.00 -65.07 85 hurdat_atl 851 851 O____________O hurdat_atl AL091886 26.00 -65.00 HU 85 2 26.00 -65.20 HU 90 2 303
1886 NA NA 21:00:00 TS 26.04 -65.14 851 850 P____________P AL091886 26.06 -65.04 HU 85 2 26.00 -65.35 HU 90 2 294
1886 NA NA 1886-09-26 00:00:00 TS 26.07 -65.23 85 hurdat_atl 861 861 O____________O hurdat_atl AL091886 26.10 -65.10 HU 85 2 26.00 -65.50 HU 90 2 286
1886 NA NA 03:00:00 TS 26.09 -65.33 861 858 P____________P AL091886 26.15 -65.15 HU 85 2 25.96 -65.70 HU 90 2 280
1886 NA NA 06:00:00 TS 26.10 -65.43 85 hurdat_atl 858 854 O____________O hurdat_atl AL091886 26.20 -65.20 HU 85 2 25.90 -65.90 HU 90 2 277
1886 NA NA 09:00:00 TS 26.10 -65.51 854 849 P____________P AL091886 26.23 -65.23 HU 85 2 25.84 -66.07 HU 90 2 283
1886 NA NA 12:00:00 TS 26.13 -65.60 85 hurdat_atl 849 849 O____________O hurdat_atl AL091886 26.30 -65.30 HU 85 2 25.80 -66.20 HU 90 3 299
1886 NA NA 15:00:00 TS 26.23 -65.76 850 850 P____________P AL091886 26.45 -65.48 HU 85 2 25.78 -66.31 HU 90 4 304
1886 NA NA 18:00:00 TS 26.33 -65.93 85 hurdat_atl 856 852 O____________O hurdat_atl AL091886 26.60 -65.70 HU 85 2 25.80 -66.40 HU 90 3 300
1886 NA NA 21:00:00 TS 26.39 -66.07 858 853 P____________P AL091886 26.66 -65.86 HU 85 2 25.84 -66.50 HU 90 3 293
1886 NA NA 1886-09-27 00:00:00 TS 26.43 -66.20 85 hurdat_atl 853 853 O____________O hurdat_atl AL091886 26.70 -66.00 HU 85 2 25.90 -66.60 HU 90 2 292
1886 NA NA 03:00:00 TS 26.48 -66.31 858 850 P____________P AL091886 26.74 -66.12 HU 85 2 25.95 -66.70 HU 90 3 293
1886 NA NA 06:00:00 TS 26.53 -66.47 85 hurdat_atl 850 850 O____________O hurdat_atl AL091886 26.80 -66.30 HU 85 2 26.00 -66.80 HU 90 4 289
1886 NA NA 09:00:00 TS 26.60 -66.72 851 844 P____________P AL091886 26.89 -66.64 HU 85 2 26.02 -66.86 HU 90 5 289
1886 NA NA 12:00:00 TS 26.70 -67.00 85 hurdat_atl 850 847 O____________O hurdat_atl AL091886 27.00 -67.00 HU 85 2 26.10 -67.00 HU 90 5 296
1886 NA NA 15:00:00 TS 26.84 -67.25 853 850 P____________P AL091886 27.09 -67.22 HU 85 2 26.33 -67.31 HU 90 5 304
1886 NA NA 18:00:00 TS 27.00 -67.50 85 hurdat_atl 854 844 O____________O hurdat_atl AL091886 27.20 -67.40 HU 85 2 26.60 -67.70 HU 90 6 303
1886 NA NA 21:00:00 TS 27.16 -67.79 852 843 P____________P AL091886 27.34 -67.65 HU 85 2 26.80 -68.08 HU 90 6 304
1886 NA NA 1886-09-28 00:00:00 TS 27.33 -68.07 85 hurdat_atl 843 843 O____________O hurdat_atl AL091886 27.50 -67.90 HU 85 2 27.00 -68.40 HU 90 6 313
1886 NA NA 03:00:00 TS 27.54 -68.27 849 849 P____________P AL091886 27.69 -68.11 HU 85 2 27.25 -68.59 HU 90 5 323
1886 NA NA 06:00:00 TS 27.77 -68.43 85 hurdat_atl 871 866 O____________O hurdat_atl AL091886 27.90 -68.30 HU 85 2 27.50 -68.70 HU 90 5 324
1886 NA NA 09:00:00 TS 27.96 -68.61 880 875 P____________P AL091886 28.09 -68.52 HU 85 2 27.69 -68.80 HU 90 5 324
1886 NA NA 12:00:00 TS 28.17 -68.77 85 hurdat_atl 889 889 O____________O hurdat_atl AL091886 28.30 -68.70 HU 85 2 27.90 -68.90 HU 90 5 332
1886 NA NA 15:00:00 TS 28.43 -68.89 904 904 P____________P AL091886 28.55 -68.82 HU 85 2 28.19 -69.05 HU 90 6 339
1886 NA NA 18:00:00 TS 28.70 -69.00 85 hurdat_atl 929 929 O____________O hurdat_atl AL091886 28.80 -68.90 HU 85 2 28.50 -69.20 HU 90 5 339
1886 NA NA 21:00:00 TS 28.94 -69.11 945 920 P____________P AL091886 29.00 -69.01 HU 85 2 28.81 -69.32 HU 87 5 339
1886 NA NA 1886-09-29 00:00:00 TS 29.17 -69.20 85 hurdat_atl 920 898 O____________O hurdat_atl AL091886 29.20 -69.10 HU 85 2 29.10 -69.40 HU 85 5 345
1886 NA NA 03:00:00 TS 29.42 -69.26 898 875 P____________P AL091886 29.46 -69.16 HU 85 2 29.35 -69.47 HU 85 5 350
1886 NA NA 06:00:00 TS 29.67 -69.30 85 hurdat_atl 875 860 O____________O hurdat_atl AL091886 29.70 -69.20 HU 85 2 29.60 -69.50 HU 85 5 351
1886 NA NA 09:00:00 TS 29.87 -69.33 860 838 P____________P AL091886 29.85 -69.24 HU 85 2 29.90 -69.51 HU 85 4 352
1886 NA NA 12:00:00 TS 30.07 -69.37 85 hurdat_atl 838 823 O____________O hurdat_atl AL091886 30.00 -69.30 HU 85 2 30.20 -69.50 HU 85 5 351
1886 NA NA 15:00:00 TS 30.31 -69.41 823 795 P____________P AL091886 30.24 -69.39 HU 85 2 30.47 -69.46 HU 85 5 350
1886 NA NA 18:00:00 TS 30.57 -69.47 85 hurdat_atl 795 781 O____________O hurdat_atl AL091886 30.50 -69.50 HU 85 2 30.70 -69.40 HU 85 982 5 350
1886 NA NA 21:00:00 TS 30.80 -69.52 781 760 P____________P AL091886 30.76 -69.60 HU 82 1 30.90 -69.36 HU 82 5 349
1886 NA NA 1886-09-30 00:00:00 TS 31.03 -69.57 80 hurdat_atl 760 747 O____________O hurdat_atl AL091886 31.00 -69.70 HU 80 1 31.10 -69.30 HU 80 5 350
1886 NA NA 03:00:00 TS 31.26 -69.61 740 725 P____________P AL091886 31.22 -69.81 HU 77 1 31.35 -69.21 HU 77 4 353
1886 NA NA 06:00:00 TS 31.47 -69.63 75 hurdat_atl 725 718 O____________O hurdat_atl AL091886 31.40 -69.90 HU 75 1 31.60 -69.10 HU 75 4 358
1886 NA NA 09:00:00 TS 31.62 -69.62 718 710 P____________P AL091886 31.54 -69.96 HU 62 0 31.76 -68.94 HU 62 4 16
1886 NA NA 12:00:00 TS 31.82 -69.52 50 hurdat_atl 710 689 O____________O hurdat_atl AL091886 31.70 -70.00 TS 50 0 32.00 -68.80 TS 50 6 18
1886 NA NA 15:00:00 TS 32.17 -69.41 689 671 P____________P AL091886 31.93 -70.05 TS 42 0 32.42 -68.78 TS 42 10 18
1886 NA NA 18:00:00 TS 32.73 -69.17 35 hurdat_atl 673 669 O____________O hurdat_atl AL091886 32.20 -70.10 TS 35 0 33.00 -68.70 TS 35 17 26
1886 NA NA 21:00:00 TS 33.67 -68.54 679 675 _____________P AL091886 TS -1 33.67 -68.54 TS 32 20 29
1886 NA NA 1886-10-01 00:00:00 TS 34.50 -68.00 695 695 _____________O -1 34.50 -68.00 TD 30 23 40
1886 NA NA 03:00:00 TS 35.47 -66.74 747 710 _____________P -1 35.47 -66.74 TD 30 30 48
1886 NA NA 06:00:00 TS 36.50 -65.30 705 684 _____________O -1 36.50 -65.30 TD 30 28 46
1886 NA NA 09:00:00 TS 37.40 -64.27 682 584 _____________P -1 37.40 -64.27 TD 30 25 36
1886 NA NA 12:00:00 TS 38.50 -63.50 576 426 _____________O -1 38.50 -63.50 TD 30 28 18
1886 NA NA 15:00:00 TS 40.05 -63.18 416 294 _____________P -1 40.05 -63.18 TD 30 34 13
1886 NA NA 18:00:00 ET 41.80 -62.50 290 198 _____________O -1 41.80 -62.50 EX 30 39 29
1886 NA NA 21:00:00 ET 43.46 -60.66 191 164 _____________P -1 43.46 -60.66 EX 30 46 46
1886 NA NA 1886-10-02 00:00:00 ET 45.00 -58.00 185 _____________O -1 45.00 -58.00 EX 30 49 51